x

8454000 - Providence, Ri (foxr1) Weather Station

8:30 - Sun 26th Apr 2015 All times are EDT. -4 hours from GMT.

  • Wind
    8mph, 11mph gusts
  • Sea Temp 47°f
  • Aire Temp 50°f
  • Sea Pressure 1004.1mb
  • 8454000 - Providence, Ri
  • 8454000 - Providence, Ri

More Historic Weather Station data

Upgrade to MSW Pro to gain access to the past 30 days of data for over 8000 Wavebouys and Weather Stations around the globe.

Join Pro

Comparision Forecast

View Surf forecast
   
dom 04/26 8:30 8 11 mph 1004.1mb 47f 50f
8:24 8 11 mph 1004.1mb 47f 50f
8:18 2 5 mph 1004.2mb 47f 49f
8:12 3 6 mph 1004.2mb 47f 48f
8:06 5 6 mph 1004.3mb 47f 48f
8:00 2 8 mph 1004.3mb 47f 48f
7:54 3 6 mph 1004.3mb 47f 47f
7:48 6 8 mph 1004.2mb 47f 47f
7:42 7 8 mph 1004.3mb 47f 47f
7:36 3 6 mph 1004.3mb 47f 47f
7:30 2 3 mph 1004.3mb 47f 47f
7:24 3 5 mph 1004.4mb 47f 47f
7:18 3 5 mph 1004.4mb 47f -
7:12  -  3 mph 1004.4mb 47f 47f
7:06 3 5 mph 1004.4mb 47f 46f
7:00 3 6 mph 1004.4mb 47f 47f
6:54 2 5 mph 1004.4mb 47f 47f
6:48 3 5 mph 1004.4mb 47f 47f
6:42 3 5 mph 1004.3mb 47f 46f
6:36 2 5 mph 1004.3mb 47f 46f
6:30 5 6 mph 1004.4mb 47f 46f
6:24 3 5 mph 1004.4mb 47f 46f
6:18 3 5 mph 1004.4mb 47f -
6:12 3 5 mph 1004.4mb 47f 45f
6:06 2 5 mph 1004.4mb 46f 46f
6:00 3 5 mph 1004.3mb 46f 45f
5:54 3 6 mph 1004.3mb 46f 45f
5:48 5 6 mph 1004.3mb 46f -
5:42 3 6 mph 1004.2mb 46f 45f
5:36 6 7 mph 1004mb 46f 45f
5:30 3 6 mph 1003.9mb 46f 45f
5:24 5 7 mph 1003.8mb 46f 45f
5:18 5 6 mph 1003.8mb 46f 45f
5:12 5 6 mph 1003.8mb 46f 45f
5:06 5 6 mph 1003.7mb 46f 45f
5:00 3 5 mph 1003.7mb 45f 45f
4:54 3 5 mph 1003.7mb 45f 45f
4:48 2 3 mph 1003.8mb 45f 45f
4:42 1 3 mph 1003.8mb 45f 45f
4:36 2
mph
1003.8mb 45f 45f
4:30 1 2 mph 1003.9mb 45f 45f
4:24 2 5 mph 1003.9mb 45f 45f
4:18 3 5 mph 1004mb 45f 45f
4:12 5 6 mph 1004mb 45f 45f
4:06 5 6 mph 1004mb 45f 45f
4:00 5 6 mph 1004mb 45f 45f
3:54 5 6 mph 1004mb 45f 45f
3:48 5 6 mph 1004.1mb 45f 45f
3:42 3 5 mph 1004.1mb 45f 45f
3:36 2 5 mph 1004.1mb 45f 45f
3:30 5 6 mph 1004.1mb 45f 45f
3:24 3 6 mph 1004.2mb 45f 45f
3:18 3 6 mph 1004.3mb 45f 45f
3:12 5 7 mph 1004.3mb 45f 45f
3:06 5 7 mph 1004.3mb 45f 45f
3:00 6 7 mph 1004.3mb 45f 45f
2:54 5 8 mph 1004.3mb 45f 45f
2:42 7 8 mph 1004.4mb 45f 45f
2:36 6 7 mph - 45f 45f
2:12 6 8 mph 1004.7mb 45f 46f
2:00 7 9 mph 1004.7mb 45f 46f
1:48 6 10 mph 1004.8mb 45f 46f
1:42 6 11 mph 1004.9mb 45f 46f
1:36 9 11 mph 1005mb 45f 47f
1:30 9 11 mph 1005mb 45f 47f
1:24 7 10 mph 1005.1mb 45f 47f
1:18 9 13 mph 1005.1mb 45f 47f
1:06 11 15 mph 1005.1mb 45f 48f
1:00 10 14 mph 1005.1mb 45f 48f
12:54 9 13 mph 1005.1mb 45f 48f
12:48 10 14 mph 1005.1mb 45f 48f
12:42 9 14 mph 1005.2mb 45f 48f
12:36 9 13 mph 1005.2mb 45f 49f
12:30 9 13 mph 1005.2mb 45f 49f
12:24 8 9 mph 1005.2mb 45f 49f
12:18 7 9 mph 1005.2mb 45f 49f
12:12 6 7 mph 1005.3mb 46f 49f
12:06 6 8 mph 1005.3mb 46f 49f
sáb 04/25 11:54 5 8 mph 1005.4mb 46f 49f
11:48 7 9 mph 1005.4mb 46f 49f
11:42 7 10 mph 1005.4mb 46f 49f
11:36 7 9 mph 1005.4mb 46f 49f
11:30 7 8 mph 1005.4mb 46f 49f
11:24 6 8 mph 1005.4mb 46f 49f
11:18 7 8 mph 1005.4mb 46f 49f
11:12 7 8 mph 1005.4mb 46f 49f
11:06 6 8 mph 1005.5mb 46f 49f
10:54 6 8 mph 1005.5mb 46f 49f
10:48 7 9 mph 1005.5mb 46f 49f
10:42 6 8 mph 1005.6mb 46f 49f
10:36 6 8 mph 1005.5mb 46f 50f
10:30 5 7 mph 1005.4mb 46f 50f
10:24 5 7 mph 1005.3mb 46f 50f
10:18 6 8 mph 1005.3mb 46f 50f
10:12 6 8 mph 1005.3mb 46f 50f
10:06 7 8 mph 1005.4mb 46f 50f
10:00 6 8 mph 1005.4mb 46f 50f
9:42 6 8 mph 1005.3mb 46f 51f
9:36 6 9 mph 1005.4mb 46f 51f
9:30 7 10 mph 1005.4mb 46f 51f
9:24 8 13 mph 1005.4mb 46f 51f
9:18 9 14 mph 1005.4mb 46f 51f
9:12 10 14 mph 1005.3mb 46f 51f
9:06 13 15 mph 1005.3mb 46f 51f
9:00 11 15 mph 1005.3mb 46f 52f
8:54 14 18 mph 1005.2mb 46f 53f
8:48 11 20 mph 1005.1mb 46f 53f
8:42 10 16 mph 1005.1mb 46f 53f
8:36 11 16 mph 1004.9mb 46f 54f
8:30 11 17 mph 1004.8mb 46f 54f
8:24 7 10 mph 1004.8mb 46f 54f
8:18 7 10 mph 1004.7mb 46f 54f
8:12 7 14 mph 1004.6mb 46f 54f
8:06 10 13 mph 1004.6mb 46f 54f
8:00 8 13 mph 1004.5mb 46f 54f
7:54 8 14 mph 1004.5mb 46f 54f
7:48 10 16 mph 1004.4mb 46f 54f
7:42 6 13 mph 1004.4mb 46f 54f
7:36 11 15 mph 1004.3mb 46f 54f
7:30 9 15 mph 1004.3mb 46f 54f
7:24 9 13 mph 1004.3mb 46f 55f
7:18 10 15 mph 1004.3mb 46f 55f
7:12 13 18 mph 1004.3mb 46f 54f
7:06 10 16 mph 1004.3mb 46f 55f
7:00 11 18 mph 1004.3mb 46f 55f
6:54 8 16 mph 1004.2mb 45f 55f
6:48 13 20 mph - - -
6:42 14 17 mph 1004.1mb 45f 55f
6:36 15 20 mph 1004mb 45f 55f
6:30 9 16 mph 1004mb 45f 55f
6:24 11 17 mph 1004mb 45f 56f
6:18 9 18 mph - - -
6:12 13 17 mph 1003.9mb 45f 56f
6:06 10 15 mph 1003.9mb 45f 56f
6:00 7 16 mph 1003.8mb 45f 56f
5:54 13 17 mph 1003.8mb 45f 56f
5:48 13 16 mph - - -
5:42 10 15 mph 1003.7mb 45f 56f
5:36 11 16 mph 1003.7mb 45f 57f
5:30 6 14 mph 1003.7mb 45f 56f
5:24 9 20 mph 1003.7mb 44f 57f
5:18 9 15 mph 1003.6mb 45f 57f
5:12 10 17 mph 1003.7mb 45f 57f
5:06 11 16 mph 1003.7mb 45f 57f
5:00 11 16 mph 1003.7mb 45f 56f
4:54 14 18 mph 1003.6mb 45f 57f
4:48 13 17 mph 1003.5mb 45f 56f
4:42 10 15 mph 1003.5mb 45f 57f
4:36 14 24 mph 1003.5mb 45f 57f
4:30 15 20 mph 1003.5mb 45f 58f
4:24 10 18 mph 1003.5mb 45f 56f
4:18 9 20 mph 1003.5mb 45f 56f
4:12 13 20 mph 1003.5mb 45f 57f
4:06 14 17 mph 1003.4mb 45f 57f
4:00 10 17 mph 1003.5mb 45f 57f
3:54 13 20 mph 1003.6mb 45f 58f
3:48 7 15 mph 1003.7mb 45f 57f
3:42 13 20 mph 1003.8mb 45f 58f
3:36 8 20 mph 1003.8mb 45f 58f
3:30 10 18 mph 1003.8mb 45f 56f
3:24 14 21 mph 1003.9mb 45f 56f
3:18 14 23 mph 1004mb 45f 57f
3:12 13 20 mph 1004mb 45f 57f
3:06 8 16 mph 1004.1mb 45f 57f
3:00 10 20 mph 1004.1mb 45f 57f
2:54 14 24 mph 1004.2mb 45f 56f
2:48 15 22 mph 1004.1mb 45f 56f
2:42 15 21 mph 1004.2mb 45f 55f
2:36 10 17 mph 1004.3mb 45f 56f
2:30 15 23 mph 1004.4mb 45f 55f
2:24 11 22 mph 1004.4mb 45f 55f
2:18 10 16 mph 1004.5mb 45f 55f
2:12 14 23 mph 1004.5mb 45f 55f
2:06 10 15 mph 1004.5mb 45f 55f
2:00 10 21 mph 1004.7mb - -
1:54 13 23 mph 1004.8mb 45f 56f
1:48 15 21 mph 1004.7mb 45f 54f
1:36 11 20 mph 1004.9mb 45f 55f
1:30 11 20 mph 1005.1mb 45f 54f
1:24 9 18 mph 1005mb 45f 56f
1:18 16 21 mph 1005.1mb 45f 55f
1:12 20 24 mph 1005.1mb - -
1:06 11 21 mph 1005.3mb 45f 53f
1:00 15 23 mph 1005.4mb 45f 55f
12:54 9 14 mph 1005.4mb 45f 55f
12:48 14 20 mph 1005.5mb 45f 53f
12:42 10 17 mph 1005.5mb 45f 54f
12:36 8 16 mph 1005.6mb 45f 53f
12:24 11 21 mph 1005.7mb 45f 53f
12:18 10 18 mph 1005.8mb 45f 53f
12:12 15 20 mph 1005.9mb 45f 53f
12:06 13 17 mph 1005.9mb 45f 52f
12:00 11 18 mph 1006mb 45f 51f
11:54 9 20 mph 1006.2mb 45f 52f
11:48 11 17 mph 1006.2mb 45f 52f
11:42 9 14 mph 1006.2mb 45f 52f
11:36 5 17 mph 1006.2mb 45f 51f
11:30 9 13 mph 1006.2mb 45f 51f
11:24 6 11 mph 1006.3mb 45f 49f
11:18 11 17 mph 1006.5mb 45f 49f
11:06 11 15 mph 1006.7mb 44f 48f
11:00 8 17 mph 1006.7mb 44f 49f
10:54 10 16 mph 1006.7mb 44f 48f
10:48 8 16 mph 1006.9mb 44f 48f
10:42 9 15 mph 1006.8mb 45f 47f
10:36 11 16 mph 1006.8mb 45f 47f
10:24 13 17 mph 1007mb 45f 47f
10:18 7 11 mph 1007.1mb 45f 47f
10:06 8 14 mph 1007.3mb 45f 46f
10:00 13 16 mph 1007.4mb 45f 45f
9:54 7 14 mph 1007.5mb 45f 45f
9:48 10 20 mph 1007.5mb 45f 45f
9:42 10 15 mph 1007.6mb 45f 45f
9:36 11 16 mph 1007.5mb 45f 43f
9:30 13 18 mph 1007.5mb 45f 43f
9:24 10 15 mph 1007.6mb 45f 44f
9:18 13 16 mph 1007.6mb 45f 43f
9:06 8 20 mph 1007.8mb 45f 42f
9:00 11 18 mph 1007.9mb 45f 41f
8:54 14 18 mph 1007.9mb 45f 40f
8:48 14 18 mph 1008.2mb 45f 41f
8:42 16 21 mph 1008.3mb 45f 41f
8:36 10 17 mph 1008.4mb 45f 41f
8:30 13 16 mph 1008.5mb 45f 40f
8:24 7 13 mph 1008.5mb 45f 41f
8:18 10 14 mph 1008.5mb 45f 40f
8:06 14 17 mph 1008.5mb 45f 39f
8:00 13 17 mph 1008.6mb 45f 39f
7:54 11 16 mph 1008.7mb 45f 39f
7:48 9 14 mph 1008.8mb 45f 39f
7:42 10 14 mph 1008.8mb 45f 38f
7:36 10 11 mph 1008.8mb 45f 38f
7:30 9 14 mph 1008.8mb 45f 38f
7:24 8 13 mph 1008.8mb 45f 38f
7:18 8 11 mph 1008.8mb 45f 38f
7:12 10 13 mph 1008.8mb 45f 37f
7:06 6 10 mph 1008.8mb 45f 37f
7:00 8 11 mph - - -
6:54 7 11 mph 1009mb 45f 37f
6:48 7 11 mph 1008.9mb 45f 36f
6:42 8 13 mph 1008.8mb 45f 36f
6:36 6 9 mph 1008.9mb 45f 36f
6:30 5 8 mph 1008.9mb 45f 36f
6:24 6 8 mph 1008.8mb 45f 36f
6:18 6 7 mph 1008.8mb 45f 35f
6:12 6 9 mph 1008.7mb 44f 35f
6:06 6 8 mph 1008.6mb 45f 35f
6:00 5 7 mph 1008.6mb 44f 35f
5:54 6 7 mph 1008.6mb 45f 35f
5:48 7 9 mph 1008.5mb - -
5:42 5 7 mph 1008.5mb 45f 35f
5:36 6 9 mph 1008.3mb 44f 35f
5:30 6 9 mph 1008.3mb 44f 35f
5:24 6 11 mph 1008.2mb 44f 35f
5:18 6 10 mph 1008.1mb 44f 35f
5:12 7 9 mph 1008.1mb 44f 35f
5:06 6 7 mph 1008mb 44f 35f
5:00 5 10 mph 1008mb 44f 35f
4:54 6 8 mph 1008mb 44f 35f
4:48 5 8 mph - - -
4:42 7 9 mph 1007.8mb 44f 35f
4:36 6 9 mph 1007.8mb 44f 35f
4:30 6 9 mph 1007.8mb 44f 35f
4:24 7 10 mph 1007.9mb 44f 35f
4:18 7 10 mph 1007.9mb 44f 35f
4:12 7 9 mph 1008mb 44f 35f
4:06 5 7 mph 1008mb 44f 35f
4:00 6 7 mph 1008mb 44f 35f
3:54 6 8 mph 1007.9mb 44f 36f
3:48 6 8 mph 1008mb - -
3:42 5 6 mph 1008mb 44f 36f
3:36 5 6 mph 1008.1mb 44f 36f
3:30 3 6 mph 1008.1mb 44f 36f
3:24 3 6 mph 1008.1mb 44f 36f
3:18 2 6 mph 1008.1mb 44f 36f
3:12 6 8 mph 1008.2mb 44f 36f
3:06 5 7 mph 1008.2mb 44f 37f
3:00 6 8 mph 1008.1mb 44f 37f
2:54 6 8 mph 1008.2mb 44f 37f
2:42 6 9 mph 1008.2mb 44f 37f
2:30 6 8 mph 1008.1mb 45f 37f
2:12 5 9 mph 1008.2mb - -
2:00 10 14 mph 1008.2mb - 38f
1:42 10 15 mph 1008.1mb 45f 38f
1:36 7 11 mph 1008.2mb 45f 38f
1:30 10 13 mph 1008.2mb 45f 38f
1:24 9 13 mph 1008.3mb 45f 38f
1:18 8 14 mph 1008.3mb 45f 38f
1:12 11 16 mph 1008.4mb 45f 39f
1:06 11 16 mph 1008.4mb 45f 39f
1:00 13 18 mph 1008.5mb 45f 39f
12:42 9 13 mph 1008.6mb 45f 39f
12:36 9 11 mph 1008.6mb 45f 39f
12:30 7 15 mph 1008.6mb 45f 40f
12:24 8 11 mph 1008.5mb 45f 40f
12:18 13 17 mph 1008.5mb 45f 40f
12:12 10 16 mph 1008.6mb 45f 40f
12:06 14 17 mph 1008.6mb 45f 40f
vie 04/24 11:54 10 18 mph 1008.7mb 45f 40f
11:48 13 17 mph 1008.7mb 45f 40f
11:42 14 23 mph 1008.7mb 46f 40f
11:36 9 16 mph 1008.6mb 46f 40f
11:30 11 18 mph 1008.5mb 46f -
11:24 8 17 mph 1008.5mb 46f 40f
11:18 14 21 mph 1008.5mb 46f 40f
11:12 8 16 mph 1008.6mb 46f 40f
11:06 13 16 mph 1008.6mb 46f 40f
11:00 10 16 mph 1008.7mb 46f 41f
10:54 15 22 mph 1008.8mb 46f 41f
10:48 10 17 mph 1008.8mb 46f 41f
10:42 15 22 mph 1008.9mb 46f 41f
10:36 13 21 mph 1008.9mb 46f 41f
10:30 11 25 mph 1008.9mb 46f 41f
10:24 9 22 mph 1008.9mb 46f 41f
10:18 13 18 mph 1008.9mb 46f 41f
10:12 14 21 mph 1008.9mb 46f 41f
10:06 16 21 mph 1008.9mb 46f 41f
10:00 14 21 mph 1008.8mb 46f 41f
9:54 18 23 mph 1008.8mb 46f 42f
9:48 10 17 mph 1008.7mb 46f 42f
9:42 13 18 mph 1008.7mb 46f 42f
9:36 11 22 mph 1008.6mb 46f 42f
9:30 13 20 mph 1008.5mb 46f 42f
9:24 13 22 mph 1008.5mb 46f 42f
9:18 11 21 mph - - -
9:12 10 22 mph 1008.4mb 46f 43f
9:06 11 18 mph 1008.4mb 46f 43f
9:00 11 23 mph 1008.4mb 46f 43f
8:54 14 24 mph 1008.4mb 46f 43f
8:48 13 21 mph 1008.4mb 46f 43f
8:42 14 23 mph 1008.3mb 46f 43f
8:36 17 23 mph 1008.2mb 46f 43f
8:30 11 20 mph 1008.3mb 46f 44f
8:24 17 26 mph 1008.2mb 46f 44f
8:18 15 23 mph - - -
8:12 13 21 mph 1008mb 46f 44f
8:06 15 23 mph 1007.9mb 47f 44f
8:00 16 22 mph 1007.8mb 47f 44f
7:54 14 26 mph 1007.8mb 47f 44f
7:48 15 25 mph 1007.7mb 47f 44f
7:42 20 28 mph 1007.6mb 47f 44f
7:36 18 25 mph 1007.5mb 47f 44f
7:30 18 24 mph 1007.5mb 47f 44f
7:24 16 26 mph 1007.5mb 47f 44f
7:18 18 29 mph 1007.4mb 47f 44f
7:12 17 28 mph 1007.3mb 47f 45f
7:06 25 31 mph 1007.2mb 47f 45f
7:00 14 23 mph 1007.1mb 47f 45f
6:54 14 22 mph 1007.1mb 47f 46f
6:48 13 21 mph 1007mb 47f 46f
6:42 20 26 mph 1006.9mb 47f 46f
6:36 22 26 mph 1006.8mb 47f 46f
6:30 17 29 mph 1006.8mb 47f 46f
6:24 14 23 mph 1006.7mb 47f 46f
6:18 16 30 mph 1006.7mb - -
6:12 17 26 mph 1006.5mb 47f 46f
6:06 18 25 mph 1006.5mb 47f 47f
6:00 14 28 mph 1006.4mb 47f 47f
5:54 18 24 mph 1006.3mb 47f 47f
5:48 20 26 mph 1006.4mb 47f 47f
5:42 14 26 mph 1006.3mb 46f 48f
5:36 10 20 mph 1006.2mb 46f 48f
5:30 14 20 mph 1006.2mb 46f 48f
5:24 13 22 mph 1006mb 46f 48f
5:18 17 25 mph 1005.9mb - -
5:12 17 22 mph 1005.9mb 46f 49f
5:06 18 25 mph 1005.9mb 45f 49f
5:00 14 20 mph 1005.9mb 45f 49f
4:54 15 23 mph 1005.9mb 45f 48f
4:48 18 25 mph - - -
4:42 16 24 mph 1005.8mb 45f 49f
4:36 11 20 mph 1005.8mb 45f 48f
4:30 11 18 mph 1005.7mb 45f 49f
4:24 14 21 mph 1005.7mb 45f 48f
4:18 14 24 mph 1005.7mb 45f 49f
4:12 14 23 mph 1005.7mb 45f 49f
4:06 17 21 mph 1005.6mb 45f 49f
4:00 17 22 mph 1005.5mb 45f 49f
3:54 16 24 mph 1005.5mb 45f 49f
3:48 18 23 mph 1005.3mb 45f 49f
3:42 8 17 mph 1005.3mb 45f 50f
3:36 8 20 mph 1005.3mb 45f 50f
3:30 14 21 mph 1005.3mb 45f 51f
3:24 15 21 mph 1005.3mb 45f 50f
3:18 9 16 mph 1005.3mb 45f 49f
3:12 13 22 mph 1005.2mb 45f 49f
3:06 13 23 mph 1005.2mb 45f 50f
3:00 14 20 mph 1005.2mb 45f 49f
2:54 14 21 mph 1005.3mb 45f 48f
2:48 17 25 mph 1005.2mb 45f 48f
2:42 16 24 mph 1005.3mb 45f 49f
2:36 14 21 mph 1005.3mb 45f 49f
2:30 13 22 mph 1005.3mb 45f 49f
2:24 10 17 mph 1005.3mb 45f 49f
2:18 10 20 mph 1005.5mb 45f 48f
2:12 13 20 mph 1005.4mb 45f 48f
2:06 11 17 mph 1005.5mb 45f 49f
2:00 10 17 mph 1005.5mb 45f 48f
1:54 13 18 mph 1005.6mb 45f 49f
1:48 15 23 mph 1005.7mb 46f 48f
1:42 15 21 mph 1005.7mb 46f 48f
1:36 14 23 mph 1005.7mb 46f 48f
1:30 16 23 mph 1005.7mb 46f 48f
1:24 11 20 mph 1005.7mb 46f 49f
1:18 14 21 mph 1005.7mb 46f 48f
1:12 14 23 mph 1005.6mb 46f 49f
1:06 16 23 mph 1005.7mb 46f 49f
1:00 10 22 mph 1005.8mb 46f 49f
12:54 7 20 mph 1005.8mb 46f 50f
12:48 15 23 mph 1005.9mb 46f 48f
12:42 17 25 mph 1005.8mb 46f 47f
12:36 16 23 mph 1005.8mb 46f 48f
12:30 14 21 mph 1005.8mb 46f 47f
12:24 9 21 mph 1005.9mb 46f 47f
12:18 16 24 mph 1005.9mb 46f 46f
12:12 13 22 mph 1006mb 46f 47f
12:06 6 14 mph 1005.9mb 46f 47f
12:00 16 23 mph 1006mb - -
11:54 10 21 mph 1006.1mb 47f 47f
11:48 11 22 mph 1006mb 47f 46f
11:42 14 21 mph 1006.1mb 47f 47f
11:36 11 23 mph 1006.2mb 47f 47f
11:30 9 25 mph 1006.2mb 47f 46f
11:24 10 16 mph 1006.2mb 47f 46f
11:18 10 25 mph - - -
11:12 13 20 mph 1006.2mb 47f 46f
11:06 15 20 mph 1006.4mb 47f 45f
11:00 11 22 mph 1006.4mb 47f 45f
10:54 11 24 mph 1006.4mb 47f 45f
10:48 14 17 mph 1006.5mb 47f 45f
10:42 14 21 mph 1006.6mb 47f 45f
10:36 13 18 mph 1006.6mb 46f 45f
10:30 13 22 mph 1006.5mb 46f -
10:24 11 20 mph 1006.5mb 46f 45f
10:18 15 22 mph 1006.5mb 46f 44f
10:12 17 26 mph 1006.5mb 46f 43f
10:06 14 22 mph 1006.5mb 46f 44f
10:00 11 17 mph 1006.6mb 47f 44f
9:54 16 23 mph 1006.6mb 47f 43f
9:48 15 23 mph 1006.6mb 47f -
9:42 14 22 mph 1006.7mb 47f 43f
9:36 16 23 mph 1006.8mb 47f 42f
9:30 15 23 mph 1006.8mb 47f 42f
9:24 17 23 mph 1006.9mb 47f 42f
9:18 16 20 mph 1006.8mb 47f 41f
9:12 10 18 mph 1006.9mb 47f 41f
9:06 11 17 mph 1006.9mb 47f 40f
9:00 13 26 mph 1006.9mb 47f 40f
8:54 15 22 mph 1006.8mb 47f 40f
8:48 15 20 mph 1006.9mb 47f 40f
8:42 13 22 mph 1006.9mb 47f 40f
8:36 15 22 mph 1006.9mb 47f 40f
8:30 13 17 mph 1006.9mb 47f 40f
8:24 15 23 mph 1007mb 47f 40f
8:18 14 24 mph 1007mb 47f 39f
8:12 17 23 mph 1007mb 47f 40f
8:06 13 22 mph 1007mb 47f 40f
8:00 9 18 mph - - -
7:54 11 24 mph 1006.9mb 47f 40f
7:48 11 21 mph 1006.9mb 47f 40f
7:42 15 23 mph 1006.9mb 47f 39f
7:36 13 24 mph 1006.9mb 47f 39f
7:30 13 18 mph 1006.9mb 47f 39f
7:24 9 23 mph 1006.8mb 47f 39f
7:18 13 22 mph - - -
7:12 14 21 mph 1006.7mb 47f 39f
7:06 13 24 mph 1006.7mb 47f 39f
7:00 10 18 mph 1006.7mb 47f 39f
6:54 10 16 mph 1006.7mb 47f 38f
6:48 11 22 mph 1006.7mb 47f 38f
6:42 13 16 mph 1006.6mb 47f 38f
6:36 11 18 mph 1006.6mb 47f 38f
6:30 11 18 mph 1006.5mb 47f 38f
6:24 9 17 mph 1006.5mb 47f 38f
6:18 9 14 mph 1006.5mb 47f 38f
6:12 8 16 mph 1006.5mb 47f 38f
6:06 9 14 mph 1006.5mb 47f 38f
6:00 9 17 mph 1006.5mb 47f 38f
5:54 10 18 mph 1006.4mb 47f 37f
5:48 7 14 mph 1006.4mb 47f 37f
5:42 9 16 mph - 47f 37f
5:36 9 16 mph - 47f 37f
5:30 11 17 mph - - -
5:24 11 18 mph - - -
5:18 10 15 mph - 47f 38f
5:12 10 18 mph - 47f 38f
5:06 9 16 mph - 47f 38f
5:00 10 16 mph 1005.9mb 47f 38f
4:54 11 16 mph 1005.9mb 47f 38f
4:48 10 18 mph 1005.9mb 47f 38f
4:42 13 17 mph 1005.8mb 47f 38f
4:36 9 14 mph 1005.8mb 47f 38f
4:30 10 17 mph 1005.8mb 47f 38f
4:24 13 18 mph 1005.8mb 47f 38f
4:18 9 16 mph 1005.7mb 47f 38f
4:12 10 17 mph 1005.7mb 47f 38f
4:06 10 14 mph 1005.7mb 47f 38f
4:00 9 14 mph 1005.6mb 47f 38f
3:54 11 17 mph 1005.6mb 47f 38f
3:48 13 17 mph 1005.7mb 47f 38f
3:42 10 15 mph 1005.7mb 47f 38f
3:36 10 20 mph 1005.7mb 47f 38f
3:30 14 20 mph 1005.7mb 47f 38f
3:24 13 18 mph 1005.8mb 47f 38f
3:18 13 22 mph 1005.7mb - 38f
3:12 11 17 mph 1005.6mb 47f 38f
3:06 9 15 mph 1005.6mb 47f 38f
3:00 11 20 mph 1005.6mb 47f 38f
2:42 13 22 mph 1005.4mb 47f 38f
2:24 11 16 mph 1005.5mb 46f 38f
2:00 9 20 mph 1005.6mb 46f 38f
1:48 11 18 mph 1005.6mb 47f 38f
1:42 13 18 mph 1005.5mb 47f 38f
1:36 9 13 mph 1005.5mb 47f 38f
1:30 11 17 mph 1005.6mb 47f 38f
1:24 8 16 mph 1005.7mb 47f 38f
1:18 9 16 mph 1005.7mb 47f 39f
1:12 11 16 mph 1005.8mb 47f 39f
1:06 9 15 mph 1005.8mb 47f 39f
12:54 11 18 mph - - -
12:48 13 17 mph 1005.8mb 47f 39f
12:42 14 20 mph 1005.8mb 47f 39f
12:36 13 20 mph 1005.8mb 47f 39f
12:30 11 16 mph 1005.8mb 47f 39f
12:24 11 20 mph 1005.8mb 47f 39f
12:18 11 22 mph 1005.8mb 47f 39f
12:12 15 22 mph 1005.8mb 47f 39f
12:06 14 17 mph 1005.8mb 48f 39f
jue 04/23 11:48 11 17 mph 1005.8mb 48f 39f
11:42 14 20 mph 1005.7mb 48f 39f
11:36 13 21 mph 1005.8mb 48f 39f
11:24 11 21 mph 1005.7mb 48f 39f
11:18 9 17 mph 1005.7mb 48f 39f
11:12 11 21 mph 1005.7mb 48f 39f
11:06 10 16 mph 1005.7mb 48f 40f
11:00 13 18 mph 1005.7mb 48f 40f
10:54 14 18 mph 1005.7mb 48f 40f
10:48 10 20 mph 1005.7mb 48f 40f
10:42 13 18 mph 1005.7mb 48f 40f
10:36 14 23 mph 1005.7mb 48f 40f
10:30 14 21 mph 1005.7mb - -
10:24 14 18 mph 1005.6mb 48f 40f
10:18 14 31 mph 1005.5mb 49f 40f
10:06 13 21 mph 1005.5mb 49f 41f
10:00 16 22 mph 1005.5mb 49f 41f
9:54 13 20 mph 1005.5mb 49f 41f
9:48 13 20 mph 1005.5mb 49f 41f
9:42 15 22 mph 1005.5mb 49f 41f
9:36 10 21 mph 1005.4mb 49f 42f
9:30 13 18 mph 1005.4mb 49f 42f
9:24 14 22 mph 1005.4mb 49f 42f
9:18 18 23 mph 1005.3mb 49f 42f
9:12 15 23 mph 1005.3mb 49f 42f
9:06 11 25 mph 1005.2mb 49f 42f
9:00 15 29 mph 1005.1mb 49f 43f
8:54 14 24 mph 1005mb 49f 43f
8:48 14 21 mph 1005mb 49f 43f
8:42 13 21 mph 1004.9mb 49f 43f
8:36 13 21 mph 1004.8mb 49f 43f
8:30 17 26 mph 1004.8mb - -
8:24 10 18 mph 1004.7mb 49f 44f
8:18 10 14 mph 1004.7mb 49f 44f
8:12 9 18 mph 1004.7mb 49f 44f
8:06 9 17 mph 1004.6mb 50f 44f
8:00 11 18 mph 1004.6mb 50f 44f
7:54 11 17 mph 1004.5mb 50f 44f
7:48 10 20 mph 1004.5mb 50f 44f
7:42 13 22 mph 1004.3mb 50f 44f
7:36 15 22 mph 1004.3mb 50f 44f
7:30 16 23 mph 1004.2mb 50f 44f
7:24 11 21 mph 1004.2mb 50f 44f
7:18 13 18 mph 1004.1mb 51f 44f
7:12 11 18 mph 1004.2mb 51f 44f
7:06 10 22 mph 1004.1mb 51f 44f
7:00 21 26 mph 1004mb 51f 44f
6:54 15 25 mph 1004mb 51f 44f
6:48 17 25 mph 1003.8mb 51f 46f
6:42 11 22 mph 1003.5mb 51f 47f
6:36 15 21 mph 1003.4mb 51f 47f
6:30 13 16 mph 1003.3mb 51f 47f
6:24 14 20 mph 1003.2mb 51f 48f
6:18 9 14 mph 1003.1mb 51f 48f
6:12 11 16 mph 1003mb 51f 48f
6:06 14 17 mph 1002.9mb 51f 48f
6:00 14 18 mph 1002.8mb - -
5:54 13 22 mph 1002.8mb 51f 48f
5:48 13 17 mph 1002.7mb 51f 49f
5:42 8 13 mph 1002.7mb 51f 49f
5:36 7 13 mph 1002.7mb 51f 49f
5:30 9 15 mph 1002.6mb 51f -
5:24 10 15 mph 1002.6mb 51f 49f
5:18 10 15 mph 1002.6mb 51f 49f
5:12 6 9 mph 1002.5mb 51f 49f
5:06 10 16 mph 1002.6mb 51f 48f
5:00 11 16 mph 1002.5mb 51f 49f
4:54 9 14 mph 1002.4mb 51f 48f
4:48 8 11 mph 1002.5mb 50f 48f
4:42 10 16 mph 1002.5mb 50f 48f
4:36 10 18 mph 1002.6mb 50f 48f
4:30 13 18 mph 1002.6mb 50f 48f
4:24 8 16 mph 1002.6mb 50f 49f
4:18 10 20 mph 1002.6mb 50f 48f
4:12 9 15 mph 1002.6mb 50f 49f
4:06 13 17 mph 1002.5mb 50f 48f
4:00 13 18 mph 1002.4mb 49f 49f
3:54 14 22 mph 1002.4mb 49f 49f
3:48 9 20 mph 1002.3mb 49f 49f
3:42 9 15 mph 1002.3mb 49f 48f
3:36 10 18 mph 1002.3mb 49f 48f
3:30 10 21 mph 1002.3mb 50f 48f
3:24 11 16 mph 1002.4mb 50f 48f
3:18 13 16 mph 1002.4mb 49f 48f
3:12 7 16 mph 1002.4mb 49f -
3:06 11 16 mph 1002.4mb 49f 49f
3:00 14 20 mph 1002.4mb 49f 48f
2:54 13 22 mph 1002.4mb 49f 48f
2:48 11 23 mph 1002.4mb 49f 48f
2:42 17 23 mph 1002.4mb 49f 48f
2:36 11 18 mph 1002.4mb 49f 48f
2:30 14 17 mph 1002.3mb 49f 48f
2:24 15 22 mph 1002.4mb 49f 48f
2:18 15 21 mph 1002.5mb 49f 48f
2:12 8 23 mph 1002.5mb 49f 49f
2:06 16 24 mph 1002.4mb 49f 48f
2:00 14 21 mph 1002.5mb 49f 49f
1:54 16 22 mph 1002.4mb 49f 49f
1:48 7 20 mph 1002.5mb 49f 49f
1:36 8 17 mph 1002.6mb 49f 48f
1:30 13 20 mph 1002.6mb 49f 47f
1:24 14 21 mph 1002.6mb 49f 47f
1:18 11 21 mph 1002.7mb 49f 47f
1:12 11 23 mph 1002.7mb 49f 47f
1:06 14 26 mph 1002.7mb 49f 47f
1:00 9 23 mph 1002.6mb 49f 48f
12:54 15 23 mph 1002.5mb 49f 47f
12:48 14 21 mph 1002.5mb 49f 48f
12:36 17 26 mph 1002.5mb 49f 47f
12:30 17 25 mph 1002.5mb 49f 48f
12:24 16 29 mph 1002.6mb 49f 49f
12:18 17 23 mph 1002.5mb 49f 49f
12:12 13 17 mph 1002.6mb 49f 48f
12:06 17 22 mph 1002.6mb 50f 47f
12:00 15 25 mph 1002.7mb 50f -
11:54 17 24 mph 1002.7mb 50f 48f
11:48 17 22 mph 1002.7mb 50f 48f
11:36 21 25 mph 1002.8mb 50f 47f
11:30 15 20 mph 1002.9mb 50f 47f
11:24 20 28 mph 1002.8mb 50f 47f
11:18 7 16 mph 1002.8mb 50f 48f
11:12 15 23 mph 1002.9mb 50f 48f
11:06 10 17 mph 1002.8mb 50f 48f
11:00 10 21 mph 1002.9mb 50f 47f
10:54 16 23 mph 1003mb 50f 47f
10:48 18 22 mph 1003mb 50f 47f
10:36 14 22 mph 1002.9mb 50f 46f
10:30 8 16 mph 1002.9mb 50f 47f
10:24 9 16 mph 1002.8mb 51f 47f
10:18 10 22 mph 1002.9mb 51f 47f
10:12 11 21 mph 1002.9mb 51f 46f
10:06 9 21 mph 1002.9mb 51f 47f
10:00 17 23 mph 1002.8mb 51f 47f
9:54 13 18 mph 1002.8mb 51f 47f
9:48 15 22 mph 1002.8mb 51f 47f
9:42 14 20 mph 1002.9mb 51f 46f
9:36 18 23 mph 1002.9mb 52f 46f
9:30 7 15 mph 1002.9mb 52f 47f
9:24 11 20 mph 1002.9mb 52f 46f
9:18 15 24 mph 1003mb - -
9:12 13 21 mph 1002.9mb 52f 46f
9:06 15 24 mph 1003mb 52f 45f
9:00 15 21 mph 1003mb 52f 46f
8:54 9 18 mph 1003mb 52f 44f
8:48 11 16 mph 1003.1mb 52f 44f
8:42 10 17 mph 1003.1mb 52f 45f
8:36 14 23 mph 1003.2mb 52f 45f
8:30 11 17 mph 1003.1mb 52f 45f
8:24 13 24 mph 1003.2mb 52f 44f
8:18 15 22 mph 1003.1mb 52f 44f
8:12 14 22 mph 1003.1mb 52f 44f
8:06 9 18 mph 1003.1mb 52f 45f
8:00 14 21 mph 1003.2mb 52f 44f
7:54 11 17 mph 1003.2mb 52f 45f
7:48 11 20 mph 1003.2mb 52f 45f
7:42 11 20 mph 1003.2mb 52f 45f
7:36 9 16 mph 1003.3mb 52f 44f
7:30 10 17 mph 1003.3mb 52f 44f
7:24 9 15 mph 1003.3mb 52f 43f
7:18 11 15 mph - - -
7:12 8 11 mph 1003.3mb 52f 43f
7:06 7 10 mph 1003.3mb 52f 43f
7:00 6 8 mph 1003.3mb 52f 42f
6:54 6 8 mph 1003.3mb 52f 42f
6:48 6 9 mph 1003.3mb 52f 42f
6:42 7 8 mph 1003.2mb 52f 42f
6:36 6 8 mph 1003mb 52f 43f
6:30 6 10 mph 1002.9mb 52f 43f
6:24 6 9 mph 1002.9mb 53f 43f
6:18 7 13 mph 1002.8mb 53f 43f
6:12 5 11 mph 1002.7mb 53f 42f
6:06 8 10 mph 1002.5mb 53f 43f
6:00 6 10 mph 1002.4mb 53f -
5:54 6 10 mph 1002.2mb 53f 43f
5:48  -  mph - 53f -
5:42  -  mph - 53f -
5:36  -  mph - 53f -
5:30 5 9 mph 1001.8mb 52f 43f
5:24 6 8 mph 1001.8mb 52f 43f
5:18 3 8 mph - - -
5:12 8 10 mph - - -
5:06 5 7 mph - - -
5:00 5 9 mph 1001.7mb 53f 43f
4:54 7 8 mph 1001.8mb 53f 43f
4:48 6 9 mph 1001.7mb 53f 43f
4:42 6 10 mph 1001.8mb 53f 43f
4:36 7 9 mph 1001.8mb 53f 43f
4:30 8 11 mph 1001.8mb 53f 43f
4:24 6 10 mph 1001.9mb 53f 43f
4:18 5 7 mph 1002mb 53f 43f
4:12 6 9 mph 1002mb 53f 43f
4:06 6 10 mph 1001.9mb 53f 43f
4:00 6 10 mph 1001.9mb 53f 43f
3:54 6 10 mph 1001.9mb 53f 43f
3:48 7 11 mph 1001.8mb 53f 44f
3:42 7 10 mph 1002mb 53f 44f
3:36 7 10 mph 1001.8mb 53f 44f
3:30 7 10 mph 1002.1mb - -
3:24 7 11 mph 1002mb 53f 44f
3:18 7 9 mph 1002mb 53f 44f
3:12 6 9 mph 1002mb 53f 43f
3:06 6 10 mph 1002mb 53f 44f
3:00 6 9 mph 1002mb 53f 44f
2:54 9 13 mph 1002.1mb 53f 44f
2:48 8 11 mph 1002mb 53f 44f
2:30 5 10 mph 1001.6mb 53f 44f
2:18 8 13 mph 1001.7mb 53f 44f
2:06 9 15 mph 1001.6mb 53f 45f
1:48 8 16 mph 1000.9mb 53f 46f
1:42 8 14 mph 1001mb 53f 46f
1:36 9 15 mph 1001.1mb 53f 46f
1:30 11 22 mph 1001.3mb 53f 47f
1:24 14 24 mph 1001mb 53f 47f
1:18 9 14 mph 1000.9mb 53f 47f
1:06 15 21 mph 1001mb 53f 47f
1:00 17 23 mph 1001.1mb 53f 48f
12:54 14 24 mph 1001.3mb 53f 48f
12:48 15 23 mph 1001.4mb 53f 48f
12:42 11 23 mph 1001.5mb 53f 48f
12:36 14 18 mph 1001.4mb 53f 49f
12:30 14 22 mph 1001.4mb 53f 49f
12:24 18 25 mph 1001.4mb 53f 49f
12:18 20 26 mph 1001.2mb 53f 50f
12:12 7 18 mph - - -
12:06 11 22 mph 1001.3mb 53f 50f
12:00 9 15 mph 1001.2mb 53f 50f
mié 04/22 11:54 11 16 mph 1000.9mb 51f 50f
11:48 11 17 mph 1000.9mb 51f 50f
11:42 10 14 mph 1000.8mb 51f 50f
11:36 10 16 mph 1000.7mb 51f 50f
11:30 10 16 mph 1000.8mb 51f 50f
11:24 13 18 mph 1000.8mb 51f 51f
11:18 13 20 mph 1000.8mb 51f 51f
11:12 8 20 mph 1000.8mb 51f 51f
11:06 10 17 mph 1000.8mb 51f 51f
11:00 11 20 mph 1000.8mb 51f 51f
10:54 10 16 mph 1000.6mb 51f 51f
10:48 13 17 mph 1000.7mb 51f 51f
10:42 13 15 mph 1000.4mb 51f 51f
10:36 8 16 mph 1000.4mb 51f 51f
10:30 14 17 mph 1000.6mb 51f 52f
10:24 13 22 mph 1000.8mb 51f 52f
10:18 13 20 mph 1001.2mb 51f 52f
10:12 14 20 mph 1000.9mb 51f 52f
10:06 16 26 mph 1001.1mb 51f 52f
10:00 14 18 mph 1001.1mb 51f 52f
9:54 13 16 mph 1001.3mb 51f 52f
9:48 13 16 mph - - -
9:42 13 15 mph 1001.5mb 51f 52f
9:36 9 14 mph 1001.7mb 51f 53f
9:30 9 15 mph 1001.6mb 51f 53f
9:24 8 11 mph 1001.4mb 51f 52f
9:18 9 11 mph 1001.2mb 51f 52f
9:12 5 10 mph 1001.7mb 51f 52f
9:06 7 11 mph 1001.8mb 51f 52f
9:00 7 10 mph 1001.9mb 50f -
8:54 7 11 mph 1002mb 50f 53f
8:48 10 13 mph 1002.2mb 50f 53f
8:42 9 17 mph 1002.2mb 50f 53f
8:36 13 16 mph 1002.3mb 50f 53f
8:30 10 15 mph 1002.4mb 50f 53f
8:24 8 17 mph 1002.6mb 51f 53f
8:18 14 22 mph 1002.6mb 51f 53f
8:12 17 26 mph 1002.7mb 51f 54f
8:06 20 32 mph 1002.8mb 51f 54f
8:00 21 28 mph 1003mb 51f 55f
7:54 18 30 mph 1003.1mb 51f 56f
7:48 15 23 mph 1002.8mb 51f 58f
7:42 14 21 mph 1002.2mb 51f 58f
7:36 8 17 mph 1002mb 51f 58f
7:30 13 20 mph 1001.8mb 51f 58f
7:24 14 26 mph 1001.9mb 51f 59f
7:18 18 30 mph 1001.9mb 51f 59f
7:06 17 26 mph 1002.3mb 51f 59f
7:00 16 22 mph 1002mb 51f 59f
6:54 13 18 mph 1002.1mb 51f 59f
6:48 13 24 mph 1002.3mb 52f 60f
6:42 11 26 mph 1002.5mb 52f 60f
6:36 16 25 mph 1002.7mb 52f 60f
6:30 17 26 mph 1002.8mb 52f 60f
6:24 21 29 mph 1003.1mb 53f 60f
6:18 17 23 mph 1003.3mb 53f 59f
6:12 13 25 mph 1003.4mb 53f 58f
6:06 10 14 mph 1003.4mb 53f 57f
5:54 14 17 mph 1002.7mb 53f 54f
5:48 16 20 mph 1002.5mb 53f 55f
5:42 16 18 mph 1002.4mb - -
5:36 14 17 mph 1002.5mb 53f 56f
5:30 15 22 mph 1002.5mb 53f 57f
5:24 16 23 mph 1002.5mb 54f 57f
5:18 14 20 mph 1002.6mb 54f 58f
5:12 17 24 mph 1002.6mb 54f 58f
5:06 16 22 mph 1002.4mb 54f 58f
5:00 16 24 mph 1002.4mb 54f 58f
4:54 15 18 mph 1002.5mb 54f 58f
4:48 16 22 mph 1002.4mb 54f 57f
4:42 16 23 mph 1002.3mb 54f 57f
4:36 20 23 mph 1002.2mb 54f 57f
4:30 17 23 mph 1002.3mb 54f 57f
4:24 16 25 mph 1002.4mb 54f 57f
4:18 17 22 mph 1002.4mb 53f 57f
4:12 16 22 mph 1002.5mb 53f 60f
4:06 14 20 mph 1002.5mb 53f 59f
4:00 15 22 mph 1002.6mb 53f 58f
3:54 17 26 mph 1002.7mb 53f 57f
3:48 21 24 mph 1002.6mb 53f 56f
3:36 18 23 mph 1002.6mb 53f 57f
3:30 20 29 mph 1002.7mb 53f 57f
3:24 22 29 mph 1002.8mb 53f 58f
3:18 23 30 mph 1002.8mb 53f 58f
3:12 22 30 mph 1002.9mb 53f 58f
3:06 23 28 mph 1003mb 52f 58f
3:00 23 28 mph 1003.2mb 52f 58f
2:54 21 26 mph 1003.3mb 52f 58f
2:48 20 28 mph 1003.4mb 52f 58f
2:42 23 29 mph 1003.5mb 52f 58f
2:36 22 29 mph 1003.6mb 52f 58f
2:30 22 25 mph - - -
2:24 22 26 mph 1003.8mb 51f 59f
2:18 22 28 mph 1003.8mb 51f 58f
2:12 24 28 mph 1003.9mb 51f 58f
2:06 21 26 mph 1004mb 50f 59f
2:00 23 29 mph 1004.1mb 50f 59f
1:54 22 30 mph 1004.2mb 50f 60f
1:48 24 29 mph 1004.1mb 50f 60f
1:42 24 29 mph 1004.3mb 49f 60f
1:36 24 30 mph 1004.4mb 49f 60f
1:30 23 30 mph 1004.5mb 49f 60f
1:24 22 28 mph 1004.6mb 49f 61f
1:18 16 23 mph 1004.7mb 48f 62f